Time;durP1;ratioP1;P1;durP2;ratioP2;P2;SDS_P1;SDS_P2;PMS_P1;PMS_P2;Temp;Humidity;BMP_temperature;BMP_pressure;BME280_temperature;BME280_humidity;BME280_pressure;Samples;Min_cycle;Max_cycle;Signal;HPM_P1;HPM_P2
2023/03/31 00:00:13;;;;;;;26.27;15.27;;;;;;;;;;10186248;28;20477;-62
2023/03/31 00:05:09;;;;;;;24.23;15.60;;;;;;;;;;10186292;28;20497;-62
2023/03/31 00:10:06;;;;;;;25.77;16.30;;;;;;;;;;10185843;28;20086;-62
2023/03/31 00:15:11;;;;;;;27.80;15.25;;;;;;;;;;10187219;28;20046;-63
2023/03/31 00:20:11;;;;;;;27.73;15.55;;;;;;;;;;10185597;28;20048;-62
2023/03/31 00:25:06;;;;;;;21.00;15.15;;;;;;;;;;10177219;28;20052;-63
2023/03/31 00:29:59;;;;;;;23.88;15.65;;;;;;;;;;10185052;28;20416;-62
2023/03/31 00:34:54;;;;;;;25.60;15.90;;;;;;;;;;10185995;28;20048;-62
2023/03/31 00:39:48;;;;;;;27.85;17.40;;;;;;;;;;10184726;28;20079;-62
2023/03/31 00:45:15;;;;;;;22.48;15.25;;;;;;;;;;10185809;28;20060;-63
2023/03/31 00:50:20;;;;;;;19.95;14.55;;;;;;;;;;10184560;28;20135;-63
2023/03/31 00:56:00;;;;;;;26.08;14.40;;;;;;;;;;10175661;28;20060;-63
2023/03/31 01:00:56;;;;;;;18.80;15.07;;;;;;;;;;10192210;28;20043;-63
2023/03/31 01:05:53;;;;;;;17.48;14.30;;;;;;;;;;10175428;28;20052;-62
2023/03/31 01:10:50;;;;;;;15.68;12.52;;;;;;;;;;10185108;28;20454;-62
2023/03/31 01:15:43;;;;;;;20.13;11.57;;;;;;;;;;10174301;28;20044;-62
2023/03/31 01:21:08;;;;;;;17.90;12.73;;;;;;;;;;10183119;28;20105;-62
2023/03/31 01:26:49;;;;;;;16.30;11.70;;;;;;;;;;10207744;28;20048;-63
2023/03/31 01:32:01;;;;;;;17.92;13.25;;;;;;;;;;10182617;28;20054;-62
2023/03/31 01:37:49;;;;;;;19.55;13.38;;;;;;;;;;10191637;28;20467;-62
2023/03/31 01:43:05;;;;;;;17.35;13.10;;;;;;;;;;10188240;28;20449;-63
2023/03/31 01:48:25;;;;;;;14.82;12.02;;;;;;;;;;10190947;28;20056;-63
2023/03/31 01:54:15;;;;;;;19.98;11.50;;;;;;;;;;10184121;28;20058;-62
2023/03/31 01:59:10;;;;;;;17.40;11.88;;;;;;;;;;10164373;28;20048;-62
2023/03/31 02:04:15;;;;;;;16.40;11.73;;;;;;;;;;10177910;28;20058;-63
2023/03/31 02:09:12;;;;;;;17.23;11.93;;;;;;;;;;10174264;28;20048;-62
2023/03/31 02:14:09;;;;;;;17.00;11.98;;;;;;;;;;10188617;28;20051;-63
2023/03/31 02:19:04;;;;;;;15.50;13.27;;;;;;;;;;10174897;28;20048;-63
2023/03/31 02:24:00;;;;;;;20.67;11.88;;;;;;;;;;10187922;28;20044;-63
2023/03/31 02:28:53;;;;;;;21.45;11.35;;;;;;;;;;10179471;28;20078;-63
2023/03/31 02:33:47;;;;;;;19.05;11.27;;;;;;;;;;10189701;28;20389;-63
2023/03/31 02:39:05;;;;;;;26.58;14.02;;;;;;;;;;10174928;28;20052;-63
2023/03/31 02:43:59;;;;;;;20.48;11.98;;;;;;;;;;10187330;28;20459;-63
2023/03/31 02:48:57;;;;;;;18.02;12.57;;;;;;;;;;10188580;28;20585;-63
2023/03/31 02:54:08;;;;;;;19.30;13.70;;;;;;;;;;10186313;28;20420;-63
2023/03/31 02:59:35;;;;;;;16.40;12.73;;;;;;;;;;10167083;28;20047;-63
2023/03/31 03:04:40;;;;;;;18.02;14.50;;;;;;;;;;10186814;28;20416;-64
2023/03/31 03:09:57;;;;;;;16.80;14.63;;;;;;;;;;10166401;28;20088;-63
2023/03/31 03:15:09;;;;;;;19.73;13.90;;;;;;;;;;10179203;28;20044;-63
2023/03/31 03:20:07;;;;;;;17.33;13.73;;;;;;;;;;10179664;28;20056;-63
2023/03/31 03:25:01;;;;;;;18.80;13.52;;;;;;;;;;10198105;28;20062;-63
2023/03/31 03:29:55;;;;;;;22.15;13.32;;;;;;;;;;10178653;28;20095;-63
2023/03/31 03:34:49;;;;;;;17.95;12.23;;;;;;;;;;10178465;28;20052;-63
2023/03/31 03:39:42;;;;;;;18.25;12.63;;;;;;;;;;10186751;28;20401;-63
2023/03/31 03:44:35;;;;;;;18.85;12.85;;;;;;;;;;10184913;28;20143;-63
2023/03/31 03:49:28;;;;;;;20.27;12.73;;;;;;;;;;10181986;28;20079;-63
2023/03/31 03:54:21;;;;;;;18.63;10.63;;;;;;;;;;10185199;28;20036;-63
2023/03/31 03:59:15;;;;;;;11.90;10.48;;;;;;;;;;10185192;28;20093;-63
2023/03/31 04:04:09;;;;;;;14.63;10.57;;;;;;;;;;10185230;28;20473;-63
2023/03/31 04:09:03;;;;;;;15.32;10.32;;;;;;;;;;10166794;28;20094;-63
2023/03/31 04:13:56;;;;;;;13.60;9.50;;;;;;;;;;10180916;28;20064;-63
2023/03/31 04:18:51;;;;;;;14.38;9.63;;;;;;;;;;10184399;28;20056;-63
2023/03/31 04:23:47;;;;;;;13.77;9.68;;;;;;;;;;10168064;28;20126;-63
2023/03/31 04:28:41;;;;;;;18.75;10.10;;;;;;;;;;10185185;28;20575;-63
2023/03/31 04:33:37;;;;;;;19.27;9.00;;;;;;;;;;10185979;28;20109;-63
2023/03/31 04:38:32;;;;;;;15.27;9.85;;;;;;;;;;10184629;28;20101;-62
2023/03/31 04:43:26;;;;;;;16.10;8.07;;;;;;;;;;10184947;28;20127;-62
2023/03/31 04:48:19;;;;;;;12.02;7.72;;;;;;;;;;10185124;28;20052;-63
2023/03/31 04:53:12;;;;;;;9.85;7.68;;;;;;;;;;10182161;28;20112;-65
2023/03/31 04:58:05;;;;;;;15.35;8.57;;;;;;;;;;10181308;28;20048;-65
2023/03/31 05:02:59;;;;;;;12.52;8.40;;;;;;;;;;10182182;28;20074;-62
2023/03/31 05:07:52;;;;;;;9.75;7.15;;;;;;;;;;10179748;28;20083;-62
2023/03/31 05:12:46;;;;;;;15.25;7.10;;;;;;;;;;10183051;28;20106;-63
2023/03/31 05:17:40;;;;;;;8.98;7.25;;;;;;;;;;10183884;28;20086;-62
2023/03/31 05:22:54;;;;;;;24.00;7.55;;;;;;;;;;10183027;28;20093;-62
2023/03/31 05:27:49;;;;;;;10.93;6.32;;;;;;;;;;10180430;28;20083;-63
2023/03/31 05:32:43;;;;;;;10.32;7.35;;;;;;;;;;10171080;28;20455;-63
2023/03/31 05:37:37;;;;;;;17.25;8.10;;;;;;;;;;10176235;28;20048;-62
2023/03/31 05:42:31;;;;;;;15.40;7.13;;;;;;;;;;10174918;28;20052;-62
2023/03/31 05:47:24;;;;;;;14.13;8.30;;;;;;;;;;10189719;28;20052;-63
2023/03/31 05:52:19;;;;;;;14.43;7.63;;;;;;;;;;10190897;28;20044;-64
2023/03/31 05:57:13;;;;;;;10.38;7.43;;;;;;;;;;10184049;28;20075;-63
2023/03/31 06:02:07;;;;;;;14.93;7.90;;;;;;;;;;10184658;28;20079;-64
2023/03/31 06:07:01;;;;;;;12.88;7.30;;;;;;;;;;10183157;28;20047;-64
2023/03/31 06:11:55;;;;;;;15.05;7.47;;;;;;;;;;10186996;28;20051;-64
2023/03/31 06:16:48;;;;;;;14.10;8.15;;;;;;;;;;10188012;28;20507;-65
2023/03/31 06:21:41;;;;;;;22.80;9.10;;;;;;;;;;10188012;28;20036;-64
2023/03/31 06:26:34;;;;;;;13.05;6.80;;;;;;;;;;10183819;28;20048;-64
2023/03/31 06:31:27;;;;;;;15.13;9.02;;;;;;;;;;10189215;28;20113;-64
2023/03/31 06:36:22;;;;;;;12.75;7.00;;;;;;;;;;10189100;28;20056;-64
2023/03/31 06:41:16;;;;;;;13.68;6.70;;;;;;;;;;10176922;28;20048;-63
2023/03/31 06:46:09;;;;;;;12.88;7.30;;;;;;;;;;10185258;28;20060;-64
2023/03/31 06:51:05;;;;;;;16.73;7.00;;;;;;;;;;10187014;28;20538;-63
2023/03/31 06:55:58;;;;;;;24.80;6.40;;;;;;;;;;10187508;28;20051;-64
2023/03/31 07:00:52;;;;;;;23.65;7.50;;;;;;;;;;10188240;28;20500;-63
2023/03/31 07:05:49;;;;;;;34.13;9.55;;;;;;;;;;10187771;28;20076;-64
2023/03/31 07:10:45;;;;;;;33.08;8.20;;;;;;;;;;10188213;28;20132;-64
2023/03/31 07:15:39;;;;;;;22.40;7.65;;;;;;;;;;10188841;28;20056;-63
2023/03/31 07:20:33;;;;;;;32.47;8.63;;;;;;;;;;10187961;28;20052;-64
2023/03/31 07:25:26;;;;;;;23.95;6.18;;;;;;;;;;10183170;28;20550;-64
2023/03/31 07:30:20;;;;;;;13.75;6.55;;;;;;;;;;10186574;28;20048;-65
2023/03/31 07:35:13;;;;;;;14.85;5.25;;;;;;;;;;10181631;28;20599;-64
2023/03/31 07:40:14;;;;;;;20.95;5.65;;;;;;;;;;10164034;28;20072;-64
2023/03/31 07:45:08;;;;;;;13.95;4.38;;;;;;;;;;10181070;28;20446;-64
2023/03/31 07:50:02;;;;;;;10.60;4.13;;;;;;;;;;10185208;28;20040;-66
2023/03/31 07:54:56;;;;;;;14.88;3.80;;;;;;;;;;10185214;28;20051;-64
2023/03/31 07:59:50;;;;;;;17.02;3.97;;;;;;;;;;10185261;28;20048;-64
2023/03/31 08:04:44;;;;;;;11.75;3.20;;;;;;;;;;10172469;28;20117;-64
2023/03/31 08:09:37;;;;;;;14.07;3.45;;;;;;;;;;10171932;28;20044;-64
2023/03/31 08:14:31;;;;;;;33.75;10.23;;;;;;;;;;10169174;28;20071;-64
2023/03/31 08:19:32;;;;;;;15.00;5.00;;;;;;;;;;10173598;28;20061;-64
2023/03/31 08:24:25;;;;;;;11.93;5.43;;;;;;;;;;10178826;28;20052;-64
2023/03/31 08:29:19;;;;;;;14.63;5.53;;;;;;;;;;10175934;28;20043;-64
2023/03/31 08:34:12;;;;;;;14.45;4.03;;;;;;;;;;10184246;28;20098;-64
2023/03/31 08:39:06;;;;;;;9.20;4.60;;;;;;;;;;10179708;28;20040;-64
2023/03/31 08:44:04;;;;;;;13.25;4.72;;;;;;;;;;10177493;28;20146;-65
2023/03/31 08:48:57;;;;;;;10.45;4.95;;;;;;;;;;10142214;28;20414;-64
2023/03/31 08:53:50;;;;;;;7.85;4.88;;;;;;;;;;10173803;28;20127;-64
2023/03/31 08:58:46;;;;;;;19.90;8.73;;;;;;;;;;10172157;28;20097;-64
2023/03/31 09:04:34;;;;;;;16.45;8.65;;;;;;;;;;10182399;28;20098;-64
2023/03/31 09:09:37;;;;;;;20.67;8.05;;;;;;;;;;10116786;28;20052;-65
2023/03/31 09:14:39;;;;;;;14.15;8.32;;;;;;;;;;10192787;28;20048;-65
2023/03/31 09:20:09;;;;;;;20.67;7.35;;;;;;;;;;10192183;28;20040;-65
2023/03/31 09:25:10;;;;;;;12.65;8.35;;;;;;;;;;10186968;28;20040;-65
2023/03/31 09:30:27;;;;;;;12.13;9.70;;;;;;;;;;10189426;28;20063;-65
2023/03/31 09:35:24;;;;;;;11.93;9.50;;;;;;;;;;10191546;28;20048;-65
2023/03/31 09:40:21;;;;;;;21.02;9.43;;;;;;;;;;10183911;28;20196;-65
2023/03/31 09:45:17;;;;;;;12.13;9.75;;;;;;;;;;10189985;28;20087;-65
2023/03/31 09:50:10;;;;;;;13.60;9.00;;;;;;;;;;10181716;28;20515;-65
2023/03/31 09:55:14;;;;;;;15.90;9.80;;;;;;;;;;10183457;28;20048;-65
2023/03/31 10:00:23;;;;;;;13.07;8.65;;;;;;;;;;10194149;28;20055;-65
2023/03/31 10:05:28;;;;;;;12.90;8.35;;;;;;;;;;10188408;28;20079;-65
2023/03/31 10:10:30;;;;;;;16.77;8.05;;;;;;;;;;10189742;28;20054;-66
2023/03/31 10:15:26;;;;;;;12.63;6.50;;;;;;;;;;10171492;28;20147;-65
2023/03/31 10:20:30;;;;;;;12.40;7.15;;;;;;;;;;10187228;28;20814;-66
2023/03/31 10:25:26;;;;;;;8.55;6.78;;;;;;;;;;10180568;28;20076;-66
2023/03/31 10:30:34;;;;;;;10.47;7.10;;;;;;;;;;10171581;28;20055;-66
2023/03/31 10:35:35;;;;;;;10.25;5.95;;;;;;;;;;10173096;28;20067;-66
2023/03/31 10:40:31;;;;;;;10.50;5.35;;;;;;;;;;10189085;28;20044;-66
2023/03/31 10:45:27;;;;;;;11.93;5.67;;;;;;;;;;10179302;28;20403;-66
2023/03/31 10:50:34;;;;;;;9.45;5.68;;;;;;;;;;10188163;28;20080;-67
2023/03/31 10:55:33;;;;;;;14.57;8.27;;;;;;;;;;10181996;28;20051;-66
2023/03/31 11:01:03;;;;;;;14.32;6.70;;;;;;;;;;10192231;28;20050;-66
2023/03/31 11:06:34;;;;;;;15.57;6.25;;;;;;;;;;10186111;28;20047;-66
2023/03/31 11:11:30;;;;;;;10.27;5.90;;;;;;;;;;10023489;28;20096;-66
2023/03/31 11:16:53;;;;;;;10.55;5.07;;;;;;;;;;10136367;28;20079;-65
2023/03/31 11:21:55;;;;;;;10.38;4.75;;;;;;;;;;10185410;28;20048;-68
2023/03/31 11:27:15;;;;;;;8.35;3.80;;;;;;;;;;10183594;28;20131;-69
2023/03/31 11:33:02;;;;;;;13.55;3.90;;;;;;;;;;10185979;28;20060;-68
2023/03/31 11:38:38;;;;;;;10.05;3.85;;;;;;;;;;10092583;28;20040;-68
2023/03/31 11:43:41;;;;;;;14.05;4.68;;;;;;;;;;10184538;28;20044;-68
2023/03/31 11:48:43;;;;;;;7.43;3.55;;;;;;;;;;10166104;28;20060;-68
2023/03/31 11:53:39;;;;;;;13.15;4.13;;;;;;;;;;10183900;28;20058;-68
2023/03/31 11:58:38;;;;;;;6.00;3.30;;;;;;;;;;10177477;28;20075;-68
2023/03/31 12:03:36;;;;;;;13.60;4.88;;;;;;;;;;10185094;28;20558;-67
2023/03/31 12:08:38;;;;;;;13.27;5.38;;;;;;;;;;10186355;28;20048;-67
2023/03/31 12:13:51;;;;;;;22.88;6.95;;;;;;;;;;10187305;28;20064;-66
2023/03/31 12:19:08;;;;;;;7.30;3.55;;;;;;;;;;10186479;28;20485;-67
2023/03/31 12:24:02;;;;;;;9.70;4.78;;;;;;;;;;10179433;28;20048;-66
2023/03/31 12:29:36;;;;;;;10.13;3.88;;;;;;;;;;10185449;28;20050;-65
2023/03/31 12:34:50;;;;;;;8.70;3.85;;;;;;;;;;10167188;28;20518;-65
2023/03/31 12:39:52;;;;;;;12.73;3.70;;;;;;;;;;10184322;28;20079;-68
2023/03/31 12:44:51;;;;;;;10.98;4.15;;;;;;;;;;10188313;28;20412;-68
2023/03/31 12:50:16;;;;;;;9.45;4.15;;;;;;;;;;10193631;28;20056;-68
2023/03/31 12:55:50;;;;;;;8.13;3.78;;;;;;;;;;10090126;28;20147;-68
2023/03/31 13:01:22;;;;;;;6.57;3.15;;;;;;;;;;10193357;28;20044;-66
2023/03/31 13:06:27;;;;;;;9.30;3.33;;;;;;;;;;10184460;28;20044;-64
2023/03/31 13:11:37;;;;;;;9.95;2.95;;;;;;;;;;10191895;28;20079;-68
2023/03/31 13:16:33;;;;;;;11.60;3.35;;;;;;;;;;10192833;28;20063;-67
2023/03/31 13:21:26;;;;;;;7.60;2.95;;;;;;;;;;10192231;28;20066;-66
2023/03/31 13:26:31;;;;;;;7.63;3.47;;;;;;;;;;10170444;28;20044;-68
2023/03/31 13:31:59;;;;;;;12.07;3.55;;;;;;;;;;10189405;28;20052;-67
2023/03/31 13:36:56;;;;;;;10.73;4.50;;;;;;;;;;10179543;28;20048;-67
2023/03/31 13:42:37;;;;;;;13.07;4.07;;;;;;;;;;10174311;28;20052;-67
2023/03/31 13:47:36;;;;;;;8.32;3.60;;;;;;;;;;10190719;28;20063;-67
2023/03/31 13:52:56;;;;;;;7.65;3.78;;;;;;;;;;10194533;28;20417;-67
2023/03/31 13:57:51;;;;;;;9.60;3.15;;;;;;;;;;10188455;28;20079;-74
2023/03/31 14:03:21;;;;;;;9.80;3.80;;;;;;;;;;10179869;28;20051;-65
2023/03/31 14:08:40;;;;;;;8.32;3.65;;;;;;;;;;10195489;28;20097;-64
2023/03/31 14:13:34;;;;;;;13.02;3.88;;;;;;;;;;10180390;28;20052;-65
2023/03/31 14:18:32;;;;;;;8.90;3.50;;;;;;;;;;10175717;28;20056;-65
2023/03/31 14:23:45;;;;;;;7.63;3.55;;;;;;;;;;10189963;28;20130;-65
2023/03/31 14:29:01;;;;;;;9.27;4.15;;;;;;;;;;10182468;28;20083;-65
2023/03/31 14:34:38;;;;;;;7.38;4.07;;;;;;;;;;10190387;28;20109;-64
2023/03/31 14:39:35;;;;;;;11.27;4.18;;;;;;;;;;10189350;28;20068;-65
2023/03/31 14:44:29;;;;;;;5.85;3.70;;;;;;;;;;10172049;28;20056;-66
2023/03/31 14:49:30;;;;;;;7.82;3.65;;;;;;;;;;10189380;28;20412;-65
2023/03/31 14:54:24;;;;;;;11.85;4.15;;;;;;;;;;10186869;28;20055;-66
2023/03/31 14:59:23;;;;;;;10.02;3.83;;;;;;;;;;10185022;28;20056;-65
2023/03/31 15:04:20;;;;;;;8.68;3.22;;;;;;;;;;10188396;28;20468;-66
2023/03/31 15:09:26;;;;;;;10.60;3.53;;;;;;;;;;10188823;28;20056;-66
2023/03/31 15:14:19;;;;;;;10.75;4.40;;;;;;;;;;10168460;28;20054;-66
2023/03/31 15:19:43;;;;;;;11.93;3.45;;;;;;;;;;10174960;28;20055;-66
2023/03/31 15:24:37;;;;;;;12.50;4.05;;;;;;;;;;10183820;28;20049;-67
2023/03/31 15:29:56;;;;;;;10.57;4.03;;;;;;;;;;10175579;28;20055;-66
2023/03/31 15:34:49;;;;;;;12.75;4.55;;;;;;;;;;10163416;28;20044;-67
2023/03/31 15:39:44;;;;;;;14.15;4.20;;;;;;;;;;10170205;28;20062;-66
2023/03/31 15:44:54;;;;;;;14.65;4.85;;;;;;;;;;10156867;28;20501;-66
2023/03/31 15:50:06;;;;;;;12.15;3.72;;;;;;;;;;10163986;28;20161;-66
2023/03/31 15:55:00;;;;;;;13.63;3.85;;;;;;;;;;10175026;28;20052;-66
2023/03/31 15:59:54;;;;;;;16.80;3.58;;;;;;;;;;10174641;28;20044;-66
2023/03/31 16:04:50;;;;;;;1.17;0.90;;;;;;;;;;10171470;28;20044;-66
2023/03/31 16:09:51;;;;;;;1.52;1.27;;;;;;;;;;10160416;28;20129;-66
2023/03/31 16:14:54;;;;;;;0.77;0.68;;;;;;;;;;10174167;28;20090;-66
2023/03/31 16:19:49;;;;;;;1.15;0.80;;;;;;;;;;10154773;28;20137;-66
2023/03/31 16:24:43;;;;;;;1.13;0.73;;;;;;;;;;10173037;28;20481;-66
2023/03/31 16:29:37;;;;;;;1.73;1.10;;;;;;;;;;10167872;28;20044;-66
2023/03/31 16:34:31;;;;;;;1.30;1.00;;;;;;;;;;10167694;28;20047;-66
2023/03/31 16:39:24;;;;;;;0.88;0.88;;;;;;;;;;10167132;28;20139;-66
2023/03/31 16:44:17;;;;;;;0.82;0.80;;;;;;;;;;10175276;28;20476;-66
2023/03/31 16:49:12;;;;;;;3.00;1.08;;;;;;;;;;10177510;28;20528;-67
2023/03/31 16:54:06;;;;;;;1.13;1.02;;;;;;;;;;10174136;28;20845;-66
2023/03/31 16:59:01;;;;;;;1.10;1.00;;;;;;;;;;10177420;28;20062;-66
2023/03/31 17:03:53;;;;;;;0.85;0.80;;;;;;;;;;10177232;28;20423;-67
2023/03/31 17:08:47;;;;;;;2.00;0.77;;;;;;;;;;10176602;28;20063;-66
2023/03/31 17:13:42;;;;;;;1.15;1.05;;;;;;;;;;10177360;28;20151;-67
2023/03/31 17:18:35;;;;;;;7.97;3.55;;;;;;;;;;10174981;28;20086;-66
2023/03/31 17:23:29;;;;;;;17.05;6.72;;;;;;;;;;10169676;28;20082;-66
2023/03/31 17:28:22;;;;;;;8.73;4.25;;;;;;;;;;10163776;28;20397;-67
2023/03/31 17:33:16;;;;;;;8.18;3.78;;;;;;;;;;10171016;28;20823;-66
2023/03/31 17:38:13;;;;;;;8.80;3.53;;;;;;;;;;10170912;28;20743;-69
2023/03/31 17:43:06;;;;;;;4.93;3.22;;;;;;;;;;10180804;28;20488;-65
2023/03/31 17:48:00;;;;;;;7.05;3.10;;;;;;;;;;10170773;28;20068;-66
2023/03/31 17:52:54;;;;;;;6.60;3.78;;;;;;;;;;10168750;28;20044;-65
2023/03/31 17:57:48;;;;;;;6.60;4.20;;;;;;;;;;10181311;28;20076;-65
2023/03/31 18:02:41;;;;;;;8.45;5.18;;;;;;;;;;10183936;28;20054;-64
2023/03/31 18:07:35;;;;;;;8.27;4.43;;;;;;;;;;10174195;28;20066;-71
2023/03/31 18:12:28;;;;;;;10.95;4.97;;;;;;;;;;10193196;28;20479;-72
2023/03/31 18:17:22;;;;;;;11.75;5.30;;;;;;;;;;10187921;28;20044;-71
2023/03/31 18:22:16;;;;;;;9.55;5.68;;;;;;;;;;10189136;28;20058;-70
2023/03/31 18:27:10;;;;;;;15.82;9.65;;;;;;;;;;10189039;28;20050;-68
2023/03/31 18:32:04;;;;;;;20.52;10.95;;;;;;;;;;10179910;28;20048;-74
2023/03/31 18:36:58;;;;;;;16.33;10.40;;;;;;;;;;10174786;28;20071;-73
2023/03/31 18:41:52;;;;;;;17.50;12.40;;;;;;;;;;10169505;28;20052;-78
2023/03/31 18:46:46;;;;;;;22.13;16.27;;;;;;;;;;10179384;28;20052;-75
2023/03/31 18:51:39;;;;;;;21.20;11.13;;;;;;;;;;10183784;28;20048;-74
2023/03/31 18:56:32;;;;;;;18.05;10.23;;;;;;;;;;10184639;28;20040;-71
2023/03/31 19:01:27;;;;;;;17.63;11.88;;;;;;;;;;10176293;28;20135;-73
2023/03/31 19:06:21;;;;;;;20.50;12.80;;;;;;;;;;10176274;28;20052;-75
2023/03/31 19:11:16;;;;;;;18.35;12.05;;;;;;;;;;10178730;28;20051;-77
2023/03/31 19:16:11;;;;;;;19.13;12.93;;;;;;;;;;10170688;28;20048;-76
2023/03/31 19:21:05;;;;;;;21.58;14.25;;;;;;;;;;10183260;28;20052;-77
2023/03/31 19:25:59;;;;;;;18.90;13.48;;;;;;;;;;10182254;28;20050;-75
2023/03/31 19:30:56;;;;;;;23.52;16.55;;;;;;;;;;10177049;28;20051;-79
2023/03/31 19:35:50;;;;;;;28.75;16.17;;;;;;;;;;10176383;28;20052;-67
2023/03/31 19:40:46;;;;;;;23.73;15.00;;;;;;;;;;10158794;28;20110;-70
2023/03/31 19:45:45;;;;;;;20.45;15.05;;;;;;;;;;10145008;28;20766;-68
2023/03/31 19:50:46;;;;;;;21.48;14.60;;;;;;;;;;10172542;28;20047;-69
2023/03/31 19:55:41;;;;;;;21.98;15.73;;;;;;;;;;10153343;28;20420;-69
2023/03/31 20:00:40;;;;;;;27.27;14.88;;;;;;;;;;10164533;28;20055;-69
2023/03/31 20:05:41;;;;;;;24.45;14.93;;;;;;;;;;10166048;28;20105;-69
2023/03/31 20:10:40;;;;;;;25.45;14.63;;;;;;;;;;10171185;28;20196;-69
2023/03/31 20:15:37;;;;;;;23.77;15.57;;;;;;;;;;10171644;28;20040;-69
2023/03/31 20:20:39;;;;;;;25.40;16.05;;;;;;;;;;10172387;28;21156;-70
2023/03/31 20:25:38;;;;;;;22.73;15.50;;;;;;;;;;10172482;28;20040;-68
2023/03/31 20:30:33;;;;;;;24.85;17.27;;;;;;;;;;10160252;28;20044;-70
2023/03/31 20:35:32;;;;;;;22.90;15.65;;;;;;;;;;10163062;28;20074;-71
2023/03/31 20:40:34;;;;;;;28.95;17.80;;;;;;;;;;10163671;28;20148;-70
2023/03/31 20:45:33;;;;;;;21.40;16.50;;;;;;;;;;10164599;28;20510;-70
2023/03/31 20:50:34;;;;;;;21.55;16.55;;;;;;;;;;10160488;28;20056;-69
2023/03/31 20:55:34;;;;;;;21.83;15.98;;;;;;;;;;10155074;28;20499;-71
2023/03/31 21:00:31;;;;;;;23.73;19.70;;;;;;;;;;10169444;28;20411;-71
2023/03/31 21:05:30;;;;;;;25.88;18.65;;;;;;;;;;10155888;28;20044;-71
2023/03/31 21:10:30;;;;;;;25.10;16.27;;;;;;;;;;10180388;28;20040;-71
2023/03/31 21:15:32;;;;;;;23.17;16.85;;;;;;;;;;10178752;28;20131;-71
2023/03/31 21:20:32;;;;;;;28.85;16.23;;;;;;;;;;10178976;28;20120;-71
2023/03/31 21:25:32;;;;;;;22.23;16.17;;;;;;;;;;10185327;28;20083;-73
2023/03/31 21:30:29;;;;;;;26.23;17.15;;;;;;;;;;10186808;28;20058;-71
2023/03/31 21:35:30;;;;;;;27.20;18.02;;;;;;;;;;10186929;28;20056;-71
2023/03/31 21:40:28;;;;;;;28.38;18.20;;;;;;;;;;10187405;28;20044;-71
2023/03/31 21:45:27;;;;;;;21.52;17.45;;;;;;;;;;10186146;28;20480;-71
2023/03/31 21:50:26;;;;;;;25.23;18.27;;;;;;;;;;10186128;28;20056;-71
2023/03/31 21:55:26;;;;;;;24.48;16.10;;;;;;;;;;10185388;28;20561;-71
2023/03/31 22:00:27;;;;;;;22.77;16.85;;;;;;;;;;10185156;28;20493;-71
2023/03/31 22:05:23;;;;;;;15.63;13.27;;;;;;;;;;10185628;28;20050;-71
2023/03/31 22:10:16;;;;;;;15.75;13.73;;;;;;;;;;10184941;28;20052;-72
2023/03/31 22:15:11;;;;;;;16.63;12.07;;;;;;;;;;10185329;28;20138;-72
2023/03/31 22:20:07;;;;;;;10.63;9.25;;;;;;;;;;10184093;28;20052;-72
2023/03/31 22:25:02;;;;;;;14.02;9.23;;;;;;;;;;10185010;28;20048;-73
2023/03/31 22:29:55;;;;;;;9.43;8.43;;;;;;;;;;10184847;28;20058;-71
2023/03/31 22:34:50;;;;;;;10.85;7.60;;;;;;;;;;10184082;28;20044;-71
2023/03/31 22:39:45;;;;;;;8.40;7.68;;;;;;;;;;10184611;28;20102;-71
2023/03/31 22:44:39;;;;;;;9.85;7.18;;;;;;;;;;10183785;28;20052;-74
2023/03/31 22:49:32;;;;;;;11.45;6.57;;;;;;;;;;10188111;28;20055;-72
2023/03/31 22:54:25;;;;;;;10.65;6.45;;;;;;;;;;10185804;28;20089;-71
2023/03/31 22:59:18;;;;;;;11.93;6.55;;;;;;;;;;10188128;28;20066;-72
2023/03/31 23:04:14;;;;;;;8.73;6.82;;;;;;;;;;10189238;28;20519;-74
2023/03/31 23:09:10;;;;;;;10.40;6.97;;;;;;;;;;10188856;28;20048;-72
2023/03/31 23:14:03;;;;;;;9.80;6.20;;;;;;;;;;10181106;28;20496;-72
2023/03/31 23:18:57;;;;;;;7.00;4.93;;;;;;;;;;10189085;28;20504;-74
2023/03/31 23:23:52;;;;;;;6.63;5.72;;;;;;;;;;10187644;28;20101;-72
2023/03/31 23:28:48;;;;;;;8.38;5.28;;;;;;;;;;10186708;28;20044;-72
2023/03/31 23:33:41;;;;;;;6.80;5.22;;;;;;;;;;10187340;28;20040;-72
2023/03/31 23:38:36;;;;;;;6.38;5.05;;;;;;;;;;10175640;28;20048;-72
2023/03/31 23:43:56;;;;;;;6.25;4.95;;;;;;;;;;10179851;28;20523;-72
2023/03/31 23:48:50;;;;;;;9.82;5.18;;;;;;;;;;10188117;28;20070;-72
2023/03/31 23:53:44;;;;;;;6.20;4.60;;;;;;;;;;10186639;28;20105;-72
2023/03/31 23:58:39;;;;;;;9.20;4.88;;;;;;;;;;10187223;28;20063;-72
